Time;durP1;ratioP1;P1;durP2;ratioP2;P2;SDS_P1;SDS_P2;PMS_P1;PMS_P2;Temp;Humidity;BMP_temperature;BMP_pressure;BME280_temperature;BME280_humidity;BME280_pressure;Samples;Min_cycle;Max_cycle;Signal;HPM_P1;HPM_P2
2024/04/08 00:00:31;;;;;;;8.07;2.20;;;;;;;;;;6197004;23;20207;-86
2024/04/08 00:03:36;;;;;;;4.37;1.70;;;;;;;;;;6217059;23;20476;-85
2024/04/08 00:06:40;;;;;;;5.17;1.87;;;;;;;;;;6200098;23;20156;-85
2024/04/08 00:09:44;;;;;;;4.33;1.80;;;;;;;;;;6234223;23;20156;-85
2024/04/08 00:12:48;;;;;;;8.03;1.70;;;;;;;;;;6234860;23;20149;-84
2024/04/08 00:15:59;;;;;;;6.30;2.17;;;;;;;;;;6199936;23;20148;-85
2024/04/08 00:19:03;;;;;;;5.27;2.00;;;;;;;;;;6234527;23;20156;-85
2024/04/08 00:22:07;;;;;;;5.77;1.90;;;;;;;;;;6198483;23;20493;-86
2024/04/08 00:25:12;;;;;;;7.87;1.87;;;;;;;;;;6216272;23;20157;-84
2024/04/08 00:28:16;;;;;;;6.30;2.10;;;;;;;;;;6181967;23;20153;-84
2024/04/08 00:31:20;;;;;;;9.50;2.17;;;;;;;;;;6208469;23;20184;-85
2024/04/08 00:34:24;;;;;;;5.43;1.67;;;;;;;;;;6233639;23;20182;-85
2024/04/08 00:37:29;;;;;;;7.93;2.30;;;;;;;;;;6233685;23;20152;-84
2024/04/08 00:40:37;;;;;;;5.70;2.03;;;;;;;;;;6211404;23;20200;-85
2024/04/08 00:43:42;;;;;;;8.20;2.00;;;;;;;;;;6216259;23;20160;-85
2024/04/08 00:46:47;;;;;;;4.23;1.80;;;;;;;;;;6199027;23;20607;-84
2024/04/08 00:49:51;;;;;;;5.90;1.83;;;;;;;;;;6233125;23;20152;-84
2024/04/08 00:52:55;;;;;;;7.63;1.97;;;;;;;;;;6214951;23;20153;-84
2024/04/08 00:56:00;;;;;;;5.03;1.70;;;;;;;;;;6198334;23;20152;-84
2024/04/08 00:59:06;;;;;;;5.33;1.97;;;;;;;;;;6233317;23;20587;-84
2024/04/08 01:02:11;;;;;;;4.30;1.93;;;;;;;;;;6190665;23;20196;-84
2024/04/08 01:05:15;;;;;;;6.57;1.63;;;;;;;;;;6213226;23;20156;-85
2024/04/08 01:08:20;;;;;;;5.50;2.00;;;;;;;;;;6196919;23;20156;-84
2024/04/08 01:11:24;;;;;;;9.30;2.40;;;;;;;;;;6207777;23;20188;-84
2024/04/08 01:14:29;;;;;;;4.40;1.80;;;;;;;;;;6232115;23;20148;-84
2024/04/08 01:17:33;;;;;;;11.87;2.40;;;;;;;;;;6196787;23;20160;-85
2024/04/08 01:20:37;;;;;;;3.60;1.73;;;;;;;;;;6227988;23;20192;-84
2024/04/08 01:23:42;;;;;;;5.77;1.70;;;;;;;;;;6214067;23;20160;-85
2024/04/08 01:26:46;;;;;;;2.43;1.67;;;;;;;;;;6196876;23;20156;-84
2024/04/08 01:29:50;;;;;;;2.63;1.50;;;;;;;;;;6213234;23;20156;-84
2024/04/08 01:32:54;;;;;;;8.33;1.93;;;;;;;;;;6213783;23;20145;-85
2024/04/08 01:36:03;;;;;;;5.60;2.03;;;;;;;;;;6213662;23;20152;-84
2024/04/08 01:39:09;;;;;;;6.00;1.90;;;;;;;;;;6214013;23;20156;-84
2024/04/08 01:42:13;;;;;;;4.07;1.97;;;;;;;;;;6213638;23;20183;-84
2024/04/08 01:45:18;;;;;;;6.30;1.73;;;;;;;;;;6213654;23;20152;-84
2024/04/08 01:48:22;;;;;;;5.90;2.10;;;;;;;;;;6196048;23;20160;-84
2024/04/08 01:51:26;;;;;;;5.83;2.00;;;;;;;;;;6189198;23;20180;-84
2024/04/08 01:54:30;;;;;;;4.27;1.93;;;;;;;;;;6197016;23;20148;-85
2024/04/08 01:57:34;;;;;;;6.50;1.77;;;;;;;;;;6217408;23;20607;-83
2024/04/08 02:00:39;;;;;;;5.03;1.83;;;;;;;;;;6192028;23;20200;-85
2024/04/08 02:03:43;;;;;;;6.80;2.10;;;;;;;;;;6234293;23;20152;-84
2024/04/08 02:06:47;;;;;;;5.07;1.87;;;;;;;;;;6200166;23;20575;-85
2024/04/08 02:09:52;;;;;;;5.03;2.00;;;;;;;;;;6199314;23;20156;-86
2024/04/08 02:12:56;;;;;;;6.60;1.70;;;;;;;;;;6217253;23;20148;-83
2024/04/08 02:16:00;;;;;;;4.13;1.87;;;;;;;;;;6216132;23;20156;-84
2024/04/08 02:19:04;;;;;;;7.23;1.73;;;;;;;;;;6215452;23;20152;-84
2024/04/08 02:22:10;;;;;;;6.73;1.87;;;;;;;;;;6200139;23;20183;-85
2024/04/08 02:25:14;;;;;;;3.90;2.10;;;;;;;;;;6199090;23;20149;-85
2024/04/08 02:28:34;;;;;;;4.97;1.73;;;;;;;;;;6235312;23;20153;-86
2024/04/08 02:31:39;;;;;;;5.93;1.87;;;;;;;;;;6197384;23;20180;-84
2024/04/08 02:34:43;;;;;;;5.17;2.07;;;;;;;;;;6220237;23;20156;-84
2024/04/08 02:37:48;;;;;;;5.33;1.93;;;;;;;;;;6219864;23;20464;-83
2024/04/08 02:40:53;;;;;;;7.90;2.20;;;;;;;;;;6199091;23;20195;-83
2024/04/08 02:43:58;;;;;;;5.27;1.83;;;;;;;;;;6221220;23;20460;-84
2024/04/08 02:47:02;;;;;;;10.77;2.40;;;;;;;;;;6238285;23;20468;-84
2024/04/08 02:50:06;;;;;;;6.37;2.10;;;;;;;;;;6235872;23;20667;-83
2024/04/08 02:53:11;;;;;;;7.30;1.90;;;;;;;;;;6220951;23;20148;-84
2024/04/08 02:56:16;;;;;;;3.13;1.80;;;;;;;;;;6221088;23;20152;-84
2024/04/08 02:59:20;;;;;;;4.07;1.50;;;;;;;;;;6239538;23;20156;-84
2024/04/08 03:02:25;;;;;;;8.13;2.00;;;;;;;;;;6212168;23;20195;-84
2024/04/08 03:05:29;;;;;;;3.10;1.90;;;;;;;;;;6202613;23;20156;-84
2024/04/08 03:08:35;;;;;;;9.10;2.13;;;;;;;;;;6201912;23;20149;-84
2024/04/08 03:11:40;;;;;;;4.40;2.00;;;;;;;;;;6229087;23;20188;-84
2024/04/08 03:14:44;;;;;;;4.23;1.67;;;;;;;;;;6185430;23;20148;-85
2024/04/08 03:17:50;;;;;;;3.97;1.90;;;;;;;;;;6237050;23;20468;-84
2024/04/08 03:21:01;;;;;;;6.27;1.70;;;;;;;;;;6213839;23;20188;-84
2024/04/08 03:24:06;;;;;;;5.50;2.07;;;;;;;;;;6237408;23;20157;-85
2024/04/08 03:27:10;;;;;;;7.87;1.80;;;;;;;;;;6219702;23;20152;-85
2024/04/08 03:30:17;;;;;;;5.77;2.00;;;;;;;;;;6217554;23;20188;-85
2024/04/08 03:33:22;;;;;;;4.80;2.13;;;;;;;;;;6220123;23;20481;-84
2024/04/08 03:36:26;;;;;;;5.57;2.43;;;;;;;;;;6202107;23;20178;-84
2024/04/08 03:39:30;;;;;;;4.97;2.30;;;;;;;;;;6201816;23;20152;-84
2024/04/08 03:42:35;;;;;;;8.00;2.00;;;;;;;;;;6201903;23;20183;-84
2024/04/08 03:45:39;;;;;;;6.03;2.20;;;;;;;;;;6219834;23;20152;-84
2024/04/08 03:48:43;;;;;;;6.50;1.93;;;;;;;;;;6202353;23;20156;-84
2024/04/08 03:51:49;;;;;;;4.37;2.00;;;;;;;;;;6228489;23;20188;-84
2024/04/08 03:54:56;;;;;;;7.17;2.37;;;;;;;;;;6218676;23;20156;-84
2024/04/08 03:58:01;;;;;;;8.60;2.17;;;;;;;;;;6238725;23;20156;-85
2024/04/08 04:01:06;;;;;;;6.40;1.93;;;;;;;;;;6231647;23;20192;-86
2024/04/08 04:04:10;;;;;;;7.20;2.10;;;;;;;;;;6218234;23;20152;-85
2024/04/08 04:07:15;;;;;;;6.37;2.13;;;;;;;;;;6218098;23;20152;-85
2024/04/08 04:10:20;;;;;;;5.70;2.47;;;;;;;;;;6214419;23;20188;-84
2024/04/08 04:13:24;;;;;;;10.57;2.13;;;;;;;;;;6216771;23;20149;-84
2024/04/08 04:16:28;;;;;;;6.93;2.20;;;;;;;;;;6217695;23;20152;-86
2024/04/08 04:19:33;;;;;;;12.47;2.50;;;;;;;;;;6234756;23;20156;-86
2024/04/08 04:22:38;;;;;;;8.00;2.00;;;;;;;;;;6215943;23;20180;-85
2024/04/08 04:25:42;;;;;;;10.83;2.10;;;;;;;;;;6235128;23;20152;-84
2024/04/08 04:28:47;;;;;;;9.17;2.17;;;;;;;;;;6198442;23;20157;-85
2024/04/08 04:31:52;;;;;;;5.00;1.80;;;;;;;;;;6225306;23;20504;-84
2024/04/08 04:34:56;;;;;;;8.17;1.90;;;;;;;;;;6215587;23;20603;-84
2024/04/08 04:38:00;;;;;;;7.57;2.20;;;;;;;;;;6216655;23;20156;-84
2024/04/08 04:41:06;;;;;;;5.80;1.97;;;;;;;;;;6228300;23;20184;-84
2024/04/08 04:44:09;;;;;;;5.27;1.70;;;;;;;;;;6215979;23;20156;-84
2024/04/08 04:47:14;;;;;;;3.60;2.17;;;;;;;;;;6234105;23;20595;-84
2024/04/08 04:50:18;;;;;;;14.70;1.90;;;;;;;;;;6212673;23;20192;-85
2024/04/08 04:53:22;;;;;;;7.33;1.70;;;;;;;;;;6231662;23;20461;-82
2024/04/08 04:56:27;;;;;;;6.77;1.83;;;;;;;;;;6213160;23;20149;-82
2024/04/08 04:59:31;;;;;;;6.20;2.17;;;;;;;;;;6228910;23;20176;-84
2024/04/08 05:02:35;;;;;;;7.97;2.07;;;;;;;;;;6221717;23;20654;-83
2024/04/08 05:05:40;;;;;;;6.03;1.83;;;;;;;;;;6230850;23;20152;-82
2024/04/08 05:08:44;;;;;;;6.60;2.10;;;;;;;;;;6231206;23;20160;-83
2024/04/08 05:11:48;;;;;;;6.57;2.00;;;;;;;;;;6220949;23;20192;-83
2024/04/08 05:14:53;;;;;;;5.13;1.80;;;;;;;;;;6231787;23;20152;-85
2024/04/08 05:17:57;;;;;;;6.83;2.10;;;;;;;;;;6230152;23;20156;-84
2024/04/08 05:21:02;;;;;;;12.03;2.30;;;;;;;;;;6205991;23;20508;-83
2024/04/08 05:24:08;;;;;;;7.97;2.20;;;;;;;;;;6230095;23;20596;-83
2024/04/08 05:27:12;;;;;;;5.93;2.00;;;;;;;;;;6212500;23;20152;-85
2024/04/08 05:30:16;;;;;;;7.87;1.80;;;;;;;;;;6227208;23;20192;-83
2024/04/08 05:33:21;;;;;;;6.67;1.70;;;;;;;;;;6211979;23;20148;-84
2024/04/08 05:36:25;;;;;;;7.50;2.37;;;;;;;;;;6177480;23;20156;-83
2024/04/08 05:39:30;;;;;;;12.43;2.83;;;;;;;;;;6211555;23;20148;-83
2024/04/08 05:42:34;;;;;;;4.17;2.07;;;;;;;;;;6211443;23;20508;-84
2024/04/08 05:45:38;;;;;;;12.47;3.83;;;;;;;;;;6211883;23;20156;-82
2024/04/08 05:48:42;;;;;;;22.10;11.00;;;;;;;;;;6213678;23;20156;-82
2024/04/08 05:51:46;;;;;;;37.77;17.33;;;;;;;;;;6203049;23;20518;-82
2024/04/08 05:54:51;;;;;;;26.93;12.07;;;;;;;;;;6211710;23;20158;-83
2024/04/08 05:57:55;;;;;;;10.00;4.77;;;;;;;;;;6195265;23;20159;-82
2024/04/08 06:00:59;;;;;;;69.90;37.83;;;;;;;;;;6207107;23;20195;-82
2024/04/08 06:04:04;;;;;;;42.57;24.23;;;;;;;;;;6212859;23;20517;-82
2024/04/08 06:07:08;;;;;;;46.77;31.27;;;;;;;;;;6213739;23;20189;-83
2024/04/08 06:10:12;;;;;;;16.53;9.60;;;;;;;;;;6211664;23;20194;-83
2024/04/08 06:13:16;;;;;;;6.77;2.97;;;;;;;;;;6213938;23;20153;-83
2024/04/08 06:16:20;;;;;;;6.80;2.30;;;;;;;;;;6233582;23;20152;-82
2024/04/08 06:19:25;;;;;;;7.77;3.13;;;;;;;;;;6196272;23;20152;-83
2024/04/08 06:22:29;;;;;;;7.37;2.50;;;;;;;;;;6214683;23;20176;-82
2024/04/08 06:25:33;;;;;;;6.93;2.27;;;;;;;;;;6213671;23;20152;-83
2024/04/08 06:28:37;;;;;;;7.67;2.60;;;;;;;;;;6210762;23;20148;-83
2024/04/08 06:31:42;;;;;;;8.83;2.60;;;;;;;;;;6220663;23;20184;-83
2024/04/08 06:34:48;;;;;;;15.00;8.73;;;;;;;;;;6211009;23;20602;-82
2024/04/08 06:37:52;;;;;;;7.60;4.17;;;;;;;;;;6210714;23;20156;-82
2024/04/08 06:40:56;;;;;;;10.13;4.47;;;;;;;;;;6206391;23;20191;-82
2024/04/08 06:44:01;;;;;;;13.13;3.97;;;;;;;;;;6230611;23;20180;-86
2024/04/08 06:47:05;;;;;;;9.13;3.33;;;;;;;;;;6212331;23;20595;-84
2024/04/08 06:50:09;;;;;;;5.53;3.30;;;;;;;;;;6193824;23;20650;-83
2024/04/08 06:53:13;;;;;;;7.77;2.90;;;;;;;;;;6230685;23;20148;-84
2024/04/08 06:56:18;;;;;;;10.07;3.00;;;;;;;;;;6196306;23;20152;-83
2024/04/08 06:59:24;;;;;;;11.93;3.30;;;;;;;;;;6212469;23;20156;-85
2024/04/08 07:02:29;;;;;;;13.60;3.73;;;;;;;;;;6189013;23;20195;-85
2024/04/08 07:05:33;;;;;;;11.43;3.30;;;;;;;;;;6237733;23;20137;-82
2024/04/08 07:08:37;;;;;;;7.07;2.97;;;;;;;;;;6215098;23;20181;-84
2024/04/08 07:11:42;;;;;;;9.07;2.57;;;;;;;;;;6171536;23;20192;-85
2024/04/08 07:14:53;;;;;;;8.07;2.43;;;;;;;;;;6231791;23;20591;-82
2024/04/08 07:17:56;;;;;;;8.60;2.80;;;;;;;;;;6212668;23;20153;-85
2024/04/08 07:21:02;;;;;;;6.87;2.37;;;;;;;;;;6207621;23;20500;-82
2024/04/08 07:24:07;;;;;;;8.37;2.10;;;;;;;;;;6213754;23;20175;-86
2024/04/08 07:27:11;;;;;;;6.23;2.27;;;;;;;;;;6196251;23;20156;-84
2024/04/08 07:30:15;;;;;;;14.07;2.70;;;;;;;;;;6193754;23;20188;-83
2024/04/08 07:33:20;;;;;;;5.23;2.40;;;;;;;;;;6213262;23;20148;-83
2024/04/08 07:36:24;;;;;;;9.93;2.33;;;;;;;;;;6231077;23;20595;-83
2024/04/08 07:39:28;;;;;;;9.73;2.50;;;;;;;;;;6196279;23;20156;-83
2024/04/08 07:42:32;;;;;;;9.63;2.23;;;;;;;;;;6231313;23;20156;-83
2024/04/08 07:45:36;;;;;;;9.10;2.60;;;;;;;;;;6194734;23;20156;-83
2024/04/08 07:48:41;;;;;;;9.77;2.47;;;;;;;;;;6195373;23;20152;-84
2024/04/08 07:51:44;;;;;;;7.40;2.50;;;;;;;;;;6222455;23;20666;-84
2024/04/08 07:54:49;;;;;;;8.97;2.40;;;;;;;;;;6231122;23;20148;-83
2024/04/08 07:57:52;;;;;;;7.90;2.23;;;;;;;;;;6214212;23;20603;-84
2024/04/08 08:00:58;;;;;;;50.33;4.00;;;;;;;;;;6223514;23;20204;-84
2024/04/08 08:04:02;;;;;;;10.97;2.77;;;;;;;;;;6213051;23;20179;-85
2024/04/08 08:07:06;;;;;;;6.50;2.13;;;;;;;;;;6212548;23;20160;-85
2024/04/08 08:10:10;;;;;;;13.80;3.97;;;;;;;;;;6229263;23;20187;-85
2024/04/08 08:13:14;;;;;;;11.13;3.20;;;;;;;;;;6231050;23;20153;-84
2024/04/08 08:16:18;;;;;;;6.17;2.40;;;;;;;;;;6212036;23;20464;-84
2024/04/08 08:19:22;;;;;;;9.70;2.93;;;;;;;;;;6230757;23;20152;-84
2024/04/08 08:22:26;;;;;;;8.53;2.70;;;;;;;;;;6195629;23;20156;-84
2024/04/08 08:25:35;;;;;;;14.20;2.83;;;;;;;;;;6230752;23;20156;-84
2024/04/08 08:28:39;;;;;;;11.17;2.80;;;;;;;;;;6211970;23;20149;-84
2024/04/08 08:31:43;;;;;;;11.53;2.80;;;;;;;;;;6221922;23;20188;-84
2024/04/08 08:34:47;;;;;;;7.10;2.63;;;;;;;;;;6229983;23;20152;-85
2024/04/08 08:37:51;;;;;;;11.83;2.53;;;;;;;;;;6194852;23;20156;-84
2024/04/08 08:41:06;;;;;;;9.90;2.47;;;;;;;;;;6224634;23;20188;-85
2024/04/08 08:44:10;;;;;;;11.47;2.43;;;;;;;;;;6230163;23;20184;-85
2024/04/08 08:47:15;;;;;;;15.77;3.23;;;;;;;;;;6212172;23;20148;-85
2024/04/08 08:50:21;;;;;;;10.83;2.60;;;;;;;;;;6227075;23;20192;-85
2024/04/08 08:53:25;;;;;;;11.37;3.23;;;;;;;;;;6211219;23;20151;-86
2024/04/08 08:56:31;;;;;;;12.67;2.93;;;;;;;;;;6211393;23;20157;-86
2024/04/08 08:59:37;;;;;;;8.77;2.37;;;;;;;;;;6211276;23;20152;-85
2024/04/08 09:02:43;;;;;;;10.90;2.50;;;;;;;;;;6200809;23;20176;-86
2024/04/08 09:05:47;;;;;;;10.80;2.40;;;;;;;;;;6229372;23;20157;-86
2024/04/08 09:08:52;;;;;;;8.57;2.53;;;;;;;;;;6193684;23;20154;-86
2024/04/08 09:11:57;;;;;;;11.70;3.07;;;;;;;;;;6183885;23;20197;-86
2024/04/08 09:15:01;;;;;;;10.80;2.95;;;;;;;;;;6229465;23;20153;-86
2024/04/08 09:18:05;;;;;;;8.27;2.50;;;;;;;;;;6210936;23;20608;-86
2024/04/08 09:21:10;;;;;;;11.23;2.50;;;;;;;;;;6187469;23;20198;-86
2024/04/08 09:24:14;;;;;;;8.68;2.50;;;;;;;;;;6211294;23;20183;-86
2024/04/08 09:27:18;;;;;;;13.15;2.45;;;;;;;;;;6192768;23;20150;-86
2024/04/08 09:30:22;;;;;;;15.10;2.60;;;;;;;;;;6189615;23;20190;-86
2024/04/08 09:33:26;;;;;;;17.77;3.42;;;;;;;;;;6228844;23;20154;-86
2024/04/08 09:36:33;;;;;;;7.80;2.63;;;;;;;;;;6229227;23;20152;-86
2024/04/08 09:39:45;;;;;;;9.15;2.70;;;;;;;;;;6210446;23;20157;-86
2024/04/08 09:42:51;;;;;;;14.25;2.80;;;;;;;;;;6193256;23;20156;-86
2024/04/08 09:45:56;;;;;;;13.00;2.53;;;;;;;;;;6229084;23;20153;-86
2024/04/08 09:49:03;;;;;;;9.55;2.13;;;;;;;;;;6210363;23;20159;-86
2024/04/08 09:52:09;;;;;;;11.15;2.30;;;;;;;;;;6227507;23;20161;-86
2024/04/08 09:55:14;;;;;;;14.45;2.92;;;;;;;;;;6193677;23;20149;-86
2024/04/08 09:58:20;;;;;;;16.58;2.75;;;;;;;;;;6192947;23;20157;-86
2024/04/08 10:01:25;;;;;;;13.20;2.47;;;;;;;;;;6220509;23;20518;-86
2024/04/08 10:04:36;;;;;;;15.38;2.70;;;;;;;;;;6228386;23;20181;-85
2024/04/08 10:07:41;;;;;;;11.55;2.42;;;;;;;;;;6229078;23;20160;-86
2024/04/08 10:10:48;;;;;;;16.77;3.35;;;;;;;;;;6226008;23;20195;-88
2024/04/08 10:13:54;;;;;;;9.93;2.65;;;;;;;;;;6194672;23;20160;-85
2024/04/08 10:16:59;;;;;;;11.60;2.58;;;;;;;;;;6210393;23;20152;-85
2024/04/08 10:20:06;;;;;;;13.20;3.00;;;;;;;;;;6209182;23;20191;-86
2024/04/08 10:23:10;;;;;;;8.73;2.53;;;;;;;;;;6228953;23;20157;-86
2024/04/08 10:26:15;;;;;;;16.45;2.88;;;;;;;;;;6230899;23;20616;-84
2024/04/08 10:29:24;;;;;;;13.95;2.60;;;;;;;;;;6219963;23;20603;-83
2024/04/08 10:32:29;;;;;;;13.00;2.35;;;;;;;;;;6237557;23;20153;-86
2024/04/08 10:35:33;;;;;;;11.30;2.70;;;;;;;;;;6210063;23;20466;-86
2024/04/08 10:38:37;;;;;;;12.88;2.53;;;;;;;;;;6228407;23;20161;-86
2024/04/08 10:41:41;;;;;;;14.57;3.03;;;;;;;;;;6218941;23;20184;-86
2024/04/08 10:44:45;;;;;;;15.00;2.90;;;;;;;;;;6192930;23;20180;-86
2024/04/08 10:47:55;;;;;;;14.95;2.95;;;;;;;;;;6210174;23;20152;-86
2024/04/08 10:50:59;;;;;;;11.27;3.60;;;;;;;;;;6187000;23;20192;-87
2024/04/08 10:54:04;;;;;;;15.68;3.30;;;;;;;;;;6229012;23;20153;-86
2024/04/08 10:57:08;;;;;;;10.77;3.33;;;;;;;;;;6210712;23;20472;-86
2024/04/08 11:00:12;;;;;;;16.73;2.83;;;;;;;;;;6187212;23;20192;-86
2024/04/08 11:03:17;;;;;;;17.88;3.45;;;;;;;;;;6212385;23;20152;-87
2024/04/08 11:06:23;;;;;;;17.40;3.28;;;;;;;;;;6209730;23;20153;-86
2024/04/08 11:09:27;;;;;;;19.98;3.25;;;;;;;;;;6209586;23;20152;-86
2024/04/08 11:12:31;;;;;;;15.82;3.00;;;;;;;;;;6209525;23;20156;-86
2024/04/08 11:15:35;;;;;;;18.60;3.20;;;;;;;;;;6192714;23;20152;-86
2024/04/08 11:18:38;;;;;;;19.63;3.97;;;;;;;;;;6228215;23;20157;-86
2024/04/08 11:21:44;;;;;;;17.67;3.17;;;;;;;;;;6219434;23;20509;-86
2024/04/08 11:24:48;;;;;;;18.17;3.58;;;;;;;;;;6227508;23;20184;-86
2024/04/08 11:27:54;;;;;;;22.52;3.63;;;;;;;;;;6209514;23;20157;-86
2024/04/08 11:31:03;;;;;;;21.08;3.67;;;;;;;;;;6186536;23;20192;-86
2024/04/08 11:34:07;;;;;;;16.70;2.90;;;;;;;;;;6176111;23;20470;-86
2024/04/08 11:37:12;;;;;;;13.77;2.97;;;;;;;;;;6174919;23;20152;-86
2024/04/08 11:40:17;;;;;;;17.27;3.08;;;;;;;;;;6172469;23;20192;-86
2024/04/08 11:43:21;;;;;;;13.00;2.88;;;;;;;;;;6227382;23;20157;-86
2024/04/08 11:46:25;;;;;;;14.85;3.58;;;;;;;;;;6208719;23;20153;-86
2024/04/08 11:49:31;;;;;;;14.48;3.10;;;;;;;;;;6209305;23;20157;-86
2024/04/08 11:52:35;;;;;;;15.20;3.70;;;;;;;;;;6209854;23;20467;-85
2024/04/08 11:55:41;;;;;;;24.33;3.78;;;;;;;;;;6176635;23;20153;-86
2024/04/08 11:58:45;;;;;;;16.48;3.50;;;;;;;;;;6193227;23;20156;-86
2024/04/08 12:01:49;;;;;;;12.82;3.30;;;;;;;;;;6201005;23;20199;-86
2024/04/08 12:04:53;;;;;;;31.00;3.53;;;;;;;;;;6228495;23;20181;-86
2024/04/08 12:07:58;;;;;;;18.60;3.20;;;;;;;;;;6228197;23;20635;-86
2024/04/08 12:11:03;;;;;;;28.45;4.43;;;;;;;;;;6223255;23;20188;-86
2024/04/08 12:14:07;;;;;;;20.60;3.72;;;;;;;;;;6228854;23;20465;-88
2024/04/08 12:17:12;;;;;;;26.25;4.32;;;;;;;;;;6210307;23;20148;-86
2024/04/08 12:20:16;;;;;;;27.27;3.65;;;;;;;;;;6208201;23;20192;-86
2024/04/08 12:23:21;;;;;;;22.17;3.80;;;;;;;;;;6210988;23;20157;-87
2024/04/08 12:26:25;;;;;;;19.98;4.45;;;;;;;;;;6210254;23;20156;-86
2024/04/08 12:29:29;;;;;;;21.83;4.47;;;;;;;;;;6193611;23;20156;-86
2024/04/08 12:32:33;;;;;;;21.50;4.30;;;;;;;;;;6210272;23;20486;-86
2024/04/08 12:35:37;;;;;;;26.40;4.60;;;;;;;;;;6210587;23;20153;-87
2024/04/08 12:38:41;;;;;;;18.23;4.47;;;;;;;;;;6228059;23;20608;-86
2024/04/08 12:41:47;;;;;;;30.90;4.72;;;;;;;;;;6201329;23;20192;-86
2024/04/08 12:44:51;;;;;;;23.33;4.13;;;;;;;;;;6210496;23;20180;-87
2024/04/08 12:47:55;;;;;;;30.23;4.47;;;;;;;;;;6192997;23;20156;-86
2024/04/08 12:50:59;;;;;;;32.22;4.88;;;;;;;;;;6205083;23;20192;-87
2024/04/08 12:54:04;;;;;;;33.97;4.55;;;;;;;;;;6210239;23;20153;-86
2024/04/08 12:57:07;;;;;;;27.23;4.85;;;;;;;;;;6228887;23;20157;-86
2024/04/08 13:00:12;;;;;;;30.02;4.63;;;;;;;;;;6191233;23;20214;-86
2024/04/08 13:03:16;;;;;;;33.00;5.20;;;;;;;;;;6210828;23;20144;-86
2024/04/08 13:06:21;;;;;;;35.42;5.32;;;;;;;;;;6211810;23;20156;-87
2024/04/08 13:09:25;;;;;;;38.83;5.72;;;;;;;;;;6210171;23;20153;-86
2024/04/08 13:12:29;;;;;;;26.75;4.95;;;;;;;;;;6210898;23;20160;-86
2024/04/08 13:15:36;;;;;;;31.23;5.00;;;;;;;;;;6211145;23;20148;-85
2024/04/08 13:18:42;;;;;;;43.92;6.60;;;;;;;;;;6210504;23;20153;-86
2024/04/08 13:21:46;;;;;;;37.35;5.93;;;;;;;;;;6201546;23;20188;-85
2024/04/08 13:24:50;;;;;;;30.00;5.70;;;;;;;;;;6210419;23;20184;-85
2024/04/08 13:27:54;;;;;;;47.80;5.93;;;;;;;;;;6228734;23;20152;-85
2024/04/08 13:30:59;;;;;;;26.63;5.72;;;;;;;;;;6207274;23;20196;-85
2024/04/08 13:34:04;;;;;;;33.03;5.80;;;;;;;;;;6194805;23;20153;-86
2024/04/08 13:37:10;;;;;;;33.85;5.78;;;;;;;;;;6211109;23;20153;-85
2024/04/08 13:40:14;;;;;;;31.13;5.80;;;;;;;;;;6208263;23;20192;-85
2024/04/08 13:43:19;;;;;;;36.55;5.38;;;;;;;;;;6211552;23;20466;-85
2024/04/08 13:46:23;;;;;;;28.95;5.82;;;;;;;;;;6210423;23;20184;-85
2024/04/08 13:49:27;;;;;;;31.92;5.82;;;;;;;;;;6209517;23;20153;-86
2024/04/08 13:52:31;;;;;;;24.02;5.47;;;;;;;;;;6210850;23;20152;-86
2024/04/08 13:55:35;;;;;;;33.88;5.57;;;;;;;;;;6229244;23;20153;-86
2024/04/08 13:58:39;;;;;;;34.45;5.50;;;;;;;;;;6192831;23;20156;-86
2024/04/08 14:01:43;;;;;;;38.58;5.70;;;;;;;;;;6201286;23;20678;-86
2024/04/08 14:04:49;;;;;;;32.47;5.05;;;;;;;;;;6211687;23;20184;-86
2024/04/08 14:07:53;;;;;;;34.53;5.55;;;;;;;;;;6196179;23;20153;-86
2024/04/08 14:10:57;;;;;;;42.08;5.47;;;;;;;;;;6227303;23;20192;-86
2024/04/08 14:14:01;;;;;;;39.20;6.80;;;;;;;;;;6228753;23;20600;-86
2024/04/08 14:17:06;;;;;;;27.83;4.85;;;;;;;;;;6210259;23;20153;-86
2024/04/08 14:20:10;;;;;;;36.08;5.53;;;;;;;;;;6227265;23;20192;-84
2024/04/08 14:23:14;;;;;;;33.67;5.40;;;;;;;;;;6231017;23;20152;-85
2024/04/08 14:26:19;;;;;;;39.03;5.68;;;;;;;;;;6209872;23;20180;-86
2024/04/08 14:29:23;;;;;;;42.90;6.28;;;;;;;;;;6175730;23;20156;-87
2024/04/08 14:32:27;;;;;;;37.63;5.47;;;;;;;;;;6194870;23;20156;-87
2024/04/08 14:35:32;;;;;;;26.60;5.22;;;;;;;;;;6199264;23;20153;-85
2024/04/08 14:38:36;;;;;;;27.85;5.50;;;;;;;;;;6233228;23;20152;-86
2024/04/08 14:41:40;;;;;;;33.10;5.97;;;;;;;;;;6204616;23;20188;-85
2024/04/08 14:44:44;;;;;;;33.00;5.55;;;;;;;;;;6231136;23;20608;-85
2024/04/08 14:47:48;;;;;;;31.60;5.13;;;;;;;;;;6195937;23;20149;-86
2024/04/08 14:50:52;;;;;;;29.95;5.60;;;;;;;;;;6226917;23;20188;-85
2024/04/08 14:53:56;;;;;;;27.92;5.00;;;;;;;;;;6211808;23;20152;-85
2024/04/08 14:57:02;;;;;;;33.78;5.22;;;;;;;;;;6231663;23;20149;-84
2024/04/08 15:01:28;;;;;;;48.05;6.30;;;;;;;;;;5516436;25;20757;-80
2024/04/08 15:04:33;;;;;;;25.73;5.80;;;;;;;;;;5464210;26;20274;-80
2024/04/08 15:07:37;;;;;;;29.15;5.53;;;;;;;;;;5463162;26;20631;-80
2024/04/08 15:10:41;;;;;;;35.70;5.72;;;;;;;;;;5492919;26;20659;-80
2024/04/08 15:13:46;;;;;;;30.77;5.07;;;;;;;;;;5449055;26;20793;-80
2024/04/08 15:16:50;;;;;;;36.22;6.35;;;;;;;;;;5491449;26;20299;-80
2024/04/08 15:19:55;;;;;;;32.22;6.35;;;;;;;;;;5477548;26;20563;-80
2024/04/08 15:22:59;;;;;;;31.88;5.20;;;;;;;;;;5456002;26;20209;-79
2024/04/08 15:26:04;;;;;;;33.70;5.65;;;;;;;;;;5477183;26;20205;-81
2024/04/08 15:29:08;;;;;;;37.30;5.18;;;;;;;;;;5476207;26;20236;-80
2024/04/08 15:32:12;;;;;;;31.33;5.47;;;;;;;;;;5476899;26;20221;-80
2024/04/08 15:35:18;;;;;;;36.83;5.78;;;;;;;;;;5455366;26;20217;-81
2024/04/08 15:38:22;;;;;;;36.03;6.10;;;;;;;;;;5455214;26;20268;-80
2024/04/08 15:41:27;;;;;;;32.42;6.07;;;;;;;;;;5477806;26;20221;-80
2024/04/08 15:44:31;;;;;;;49.50;6.15;;;;;;;;;;5454626;26;20220;-80
2024/04/08 15:47:35;;;;;;;38.05;6.03;;;;;;;;;;5476238;26;20284;-81
2024/04/08 15:50:40;;;;;;;35.20;5.70;;;;;;;;;;5476470;26;20529;-79
2024/04/08 15:53:44;;;;;;;32.88;6.25;;;;;;;;;;5475492;26;20216;-79
2024/04/08 15:56:49;;;;;;;32.90;6.20;;;;;;;;;;5476774;26;20751;-79
2024/04/08 15:59:53;;;;;;;33.65;5.28;;;;;;;;;;5455499;26;20277;-80
2024/04/08 16:02:57;;;;;;;41.95;6.05;;;;;;;;;;5455227;26;20772;-81
2024/04/08 16:06:10;;;;;;;33.95;5.20;;;;;;;;;;5455025;26;20223;-81
2024/04/08 16:09:15;;;;;;;35.67;5.90;;;;;;;;;;5474993;26;20300;-81
2024/04/08 16:12:19;;;;;;;31.65;5.97;;;;;;;;;;5461230;26;20213;-79
2024/04/08 16:15:23;;;;;;;38.10;6.45;;;;;;;;;;5459661;26;20216;-78
2024/04/08 16:18:27;;;;;;;27.52;5.57;;;;;;;;;;5460891;26;20274;-78
2024/04/08 16:21:32;;;;;;;32.03;6.07;;;;;;;;;;5457453;26;20778;-79
2024/04/08 16:24:37;;;;;;;40.00;5.38;;;;;;;;;;5457444;26;20223;-78
2024/04/08 16:27:41;;;;;;;27.85;5.05;;;;;;;;;;5457670;26;20630;-78
2024/04/08 16:31:07;;;;;;;21.92;4.63;;;;;;;;;;5459387;26;20721;-78
2024/04/08 16:34:12;;;;;;;18.27;4.07;;;;;;;;;;5416212;26;20237;-78
2024/04/08 16:37:16;;;;;;;25.80;4.53;;;;;;;;;;5437024;26;20327;-78
2024/04/08 16:40:20;;;;;;;19.02;4.30;;;;;;;;;;5457660;26;20229;-78
2024/04/08 16:43:25;;;;;;;26.80;4.80;;;;;;;;;;5457608;26;20228;-78
2024/04/08 16:46:29;;;;;;;26.77;4.32;;;;;;;;;;5458650;26;20228;-78
2024/04/08 16:49:34;;;;;;;19.17;4.45;;;;;;;;;;5457139;26;20262;-77
2024/04/08 16:52:39;;;;;;;17.35;4.05;;;;;;;;;;5458579;26;20273;-78
2024/04/08 16:55:52;;;;;;;20.90;4.65;;;;;;;;;;5436355;26;20277;-78
2024/04/08 16:58:57;;;;;;;18.63;3.75;;;;;;;;;;5416282;26;20222;-78
2024/04/08 17:02:02;;;;;;;27.30;3.92;;;;;;;;;;5457009;26;20219;-78
2024/04/08 17:05:06;;;;;;;19.95;4.40;;;;;;;;;;5457066;26;20224;-78
2024/04/08 17:08:11;;;;;;;32.20;4.45;;;;;;;;;;5457049;26;20785;-79
2024/04/08 17:11:15;;;;;;;19.80;3.83;;;;;;;;;;5435941;26;20275;-78
2024/04/08 17:14:20;;;;;;;24.65;4.25;;;;;;;;;;5456735;26;20222;-80
2024/04/08 17:17:31;;;;;;;34.10;4.85;;;;;;;;;;5427164;26;20289;-83
2024/04/08 17:20:36;;;;;;;24.25;4.22;;;;;;;;;;5436830;26;20273;-82
2024/04/08 17:23:41;;;;;;;19.67;3.95;;;;;;;;;;5484032;26;20340;-82
2024/04/08 17:26:47;;;;;;;22.20;4.63;;;;;;;;;;5475739;26;20280;-80
2024/04/08 17:29:51;;;;;;;23.50;4.60;;;;;;;;;;5475633;26;20777;-82
2024/04/08 17:32:55;;;;;;;26.07;3.90;;;;;;;;;;5442834;26;20294;-81
2024/04/08 17:36:02;;;;;;;20.73;4.57;;;;;;;;;;5461452;26;20227;-82
2024/04/08 17:39:06;;;;;;;21.87;3.93;;;;;;;;;;5461237;26;20221;-82
2024/04/08 17:42:11;;;;;;;20.90;4.93;;;;;;;;;;5469868;26;20325;-81
2024/04/08 17:45:15;;;;;;;22.60;4.57;;;;;;;;;;5458772;26;20293;-84
2024/04/08 17:48:20;;;;;;;18.90;4.00;;;;;;;;;;5472807;26;20284;-80
2024/04/08 17:51:25;;;;;;;31.77;5.40;;;;;;;;;;5466417;26;20275;-80
2024/04/08 17:54:30;;;;;;;19.90;4.77;;;;;;;;;;5478985;26;20268;-81
2024/04/08 17:57:34;;;;;;;24.40;4.63;;;;;;;;;;5491378;26;20767;-81
2024/04/08 18:00:39;;;;;;;22.33;4.53;;;;;;;;;;5479352;26;20664;-79
2024/04/08 18:03:43;;;;;;;20.13;4.23;;;;;;;;;;5442393;26;20255;-82
2024/04/08 18:06:48;;;;;;;19.83;4.20;;;;;;;;;;5442294;26;20255;-80
2024/04/08 18:09:53;;;;;;;24.03;4.63;;;;;;;;;;5461978;26;20233;-79
2024/04/08 18:13:07;;;;;;;23.50;4.10;;;;;;;;;;5462552;26;20225;-79
2024/04/08 18:16:21;;;;;;;33.70;5.03;;;;;;;;;;5421902;26;20264;-78
2024/04/08 18:19:40;;;;;;;26.50;5.23;;;;;;;;;;5444628;26;20615;-77